Time;durP1;ratioP1;P1;durP2;ratioP2;P2;SDS_P1;SDS_P2;PMS_P1;PMS_P2;Temp;Humidity;BMP_temperature;BMP_pressure;BME280_temperature;BME280_humidity;BME280_pressure;Samples;Min_cycle;Max_cycle;Signal;HPM_P1;HPM_P2
2020/12/16 00:02:24;;;;;;;21.45;5.10;;;7.60;99.90;;;;;;5064231;28;20024;-61
2020/12/16 00:04:49;;;;;;;23.55;5.25;;;7.60;99.90;;;;;;5093461;28;20043;-61
2020/12/16 00:07:15;;;;;;;29.52;5.63;;;7.60;99.90;;;;;;5080550;28;20032;-61
2020/12/16 00:09:42;;;;;;;21.60;4.97;;;7.50;99.90;;;;;;5078803;28;20104;-61
2020/12/16 00:12:08;;;;;;;25.30;4.97;;;7.50;99.90;;;;;;5080774;28;20048;-61
2020/12/16 00:14:33;;;;;;;25.17;6.13;;;7.60;99.90;;;;;;5087631;28;20391;-62
2020/12/16 00:16:59;;;;;;;33.75;7.13;;;7.50;99.90;;;;;;5076881;28;20056;-61
2020/12/16 00:19:25;;;;;;;21.15;4.88;;;7.50;99.90;;;;;;5072062;28;20024;-62
2020/12/16 00:21:51;;;;;;;23.05;5.13;;;7.60;99.90;;;;;;5082841;28;20496;-63
2020/12/16 00:24:17;;;;;;;22.45;5.38;;;7.60;99.90;;;;;;5063978;28;20024;-63
2020/12/16 00:26:43;;;;;;;23.73;5.30;;;7.60;99.90;;;;;;5061676;28;20028;-60
2020/12/16 00:29:11;;;;;;;29.77;4.78;;;7.60;99.90;;;;;;5056996;28;20036;-62
2020/12/16 00:31:38;;;;;;;38.97;11.38;;;7.60;99.90;;;;;;5082011;28;20036;-62
2020/12/16 00:34:07;;;;;;;26.00;5.40;;;7.60;99.90;;;;;;5073439;28;20036;-62
2020/12/16 00:36:38;;;;;;;22.73;4.78;;;7.60;99.90;;;;;;5063550;28;20037;-61
2020/12/16 00:39:06;;;;;;;22.15;5.00;;;7.60;99.90;;;;;;5068698;28;20025;-62
2020/12/16 00:41:32;;;;;;;21.10;5.00;;;7.60;99.90;;;;;;5056758;28;20403;-61
2020/12/16 00:44:03;;;;;;;22.05;4.53;;;7.60;99.90;;;;;;5060142;28;20045;-63
2020/12/16 00:46:29;;;;;;;23.05;5.00;;;7.60;99.90;;;;;;5058376;28;20443;-61
2020/12/16 00:48:54;;;;;;;17.95;4.78;;;7.70;99.90;;;;;;5072516;28;20036;-61
2020/12/16 00:51:20;;;;;;;21.20;4.70;;;7.60;99.90;;;;;;5072668;28;20024;-63
2020/12/16 00:53:46;;;;;;;23.73;5.22;;;7.60;99.90;;;;;;5069125;28;20072;-61
2020/12/16 00:56:12;;;;;;;20.27;5.03;;;7.60;99.90;;;;;;5053014;28;20497;-60
2020/12/16 00:58:38;;;;;;;21.05;4.60;;;7.60;99.90;;;;;;5081430;28;20024;-60
2020/12/16 01:01:05;;;;;;;27.27;4.85;;;7.60;99.90;;;;;;5079472;28;20031;-62
2020/12/16 01:03:32;;;;;;;27.83;5.00;;;7.50;99.90;;;;;;5069600;28;20031;-61
2020/12/16 01:05:58;;;;;;;18.58;4.25;;;7.50;99.90;;;;;;5080361;28;20044;-62
2020/12/16 01:08:23;;;;;;;24.88;4.85;;;7.50;99.90;;;;;;5077403;28;20028;-62
2020/12/16 01:10:50;;;;;;;18.35;3.85;;;7.50;99.90;;;;;;5072546;28;20056;-62
2020/12/16 01:13:16;;;;;;;18.85;3.88;;;7.50;99.90;;;;;;5091981;28;20032;-62
2020/12/16 01:15:42;;;;;;;36.20;4.40;;;7.50;99.90;;;;;;5077528;28;20074;-62
2020/12/16 01:18:07;;;;;;;21.55;4.05;;;7.60;99.90;;;;;;5063974;28;20509;-61
2020/12/16 01:20:33;;;;;;;26.23;4.22;;;7.60;99.90;;;;;;5079174;28;20121;-62
2020/12/16 01:22:59;;;;;;;25.42;4.10;;;7.60;99.90;;;;;;5072049;28;20058;-63
2020/12/16 01:25:24;;;;;;;20.35;3.78;;;7.60;99.90;;;;;;5067797;28;20044;-62
2020/12/16 01:28:00;;;;;;;21.88;3.78;;;7.60;99.90;;;;;;5052528;28;20037;-61
2020/12/16 01:30:27;;;;;;;21.35;4.05;;;7.60;99.90;;;;;;5054090;28;20029;-61
2020/12/16 01:32:53;;;;;;;21.77;3.78;;;7.60;99.90;;;;;;5085348;28;20044;-61
2020/12/16 01:35:19;;;;;;;24.08;3.88;;;7.60;99.90;;;;;;5071080;28;20482;-61
2020/12/16 01:37:45;;;;;;;21.23;4.20;;;7.60;99.90;;;;;;5052946;28;20041;-63
2020/12/16 01:40:12;;;;;;;20.38;3.58;;;7.70;99.90;;;;;;5063054;28;20035;-63
2020/12/16 01:42:39;;;;;;;23.90;3.97;;;7.70;99.90;;;;;;5088725;28;20078;-61
2020/12/16 01:45:23;;;;;;;18.35;3.70;;;7.70;99.90;;;;;;5072888;28;20127;-61
2020/12/16 01:47:51;;;;;;;21.20;3.58;;;7.70;99.90;;;;;;5052462;28;20033;-62
2020/12/16 01:50:17;;;;;;;21.30;4.10;;;7.70;99.90;;;;;;5080272;28;20116;-63
2020/12/16 01:52:44;;;;;;;17.63;3.60;;;7.60;99.90;;;;;;5063584;28;20070;-60
2020/12/16 01:55:11;;;;;;;21.45;4.25;;;7.60;99.90;;;;;;5061902;28;20059;-62
2020/12/16 01:57:49;;;;;;;30.83;4.80;;;7.60;99.90;;;;;;5051515;28;20057;-62
2020/12/16 02:00:16;;;;;;;19.80;3.45;;;7.50;99.90;;;;;;5053340;28;20029;-62
2020/12/16 02:02:51;;;;;;;25.00;4.40;;;7.50;99.90;;;;;;5051986;28;20112;-62
2020/12/16 02:05:21;;;;;;;24.08;4.32;;;7.60;99.90;;;;;;5078144;28;20101;-61
2020/12/16 02:07:48;;;;;;;22.50;4.05;;;7.60;99.90;;;;;;5071958;28;20052;-61
2020/12/16 02:10:14;;;;;;;19.70;3.78;;;7.60;99.90;;;;;;5070264;28;20025;-61
2020/12/16 02:12:40;;;;;;;26.92;4.00;;;7.60;99.90;;;;;;5069389;28;20025;-62
2020/12/16 02:15:07;;;;;;;19.17;4.20;;;7.70;99.90;;;;;;5064648;28;20491;-62
2020/12/16 02:17:33;;;;;;;20.35;4.10;;;7.60;99.90;;;;;;5062868;28;20021;-60
2020/12/16 02:20:00;;;;;;;23.98;3.60;;;7.60;99.90;;;;;;5065208;28;20043;-61
2020/12/16 02:22:27;;;;;;;22.20;3.75;;;7.60;99.90;;;;;;5070815;28;20032;-62
2020/12/16 02:25:05;;;;;;;19.83;3.85;;;7.60;99.90;;;;;;5070690;28;20036;-62
2020/12/16 02:27:31;;;;;;;26.75;4.05;;;7.60;99.90;;;;;;5064347;28;20025;-65
2020/12/16 02:29:57;;;;;;;25.08;4.05;;;7.60;99.90;;;;;;5063499;28;20040;-60
2020/12/16 02:32:25;;;;;;;18.83;3.47;;;7.60;99.90;;;;;;5051240;28;20027;-63
2020/12/16 02:34:52;;;;;;;21.90;4.32;;;7.60;99.90;;;;;;5071005;28;20112;-62
2020/12/16 02:37:18;;;;;;;30.00;4.35;;;7.50;99.90;;;;;;5069898;28;20094;-60
2020/12/16 02:39:44;;;;;;;22.33;3.95;;;7.50;99.90;;;;;;5081462;28;20028;-62
2020/12/16 02:42:10;;;;;;;21.02;3.58;;;7.50;99.90;;;;;;5068969;28;20116;-60
2020/12/16 02:44:36;;;;;;;22.58;4.07;;;7.60;99.90;;;;;;5084338;28;20467;-60
2020/12/16 02:47:03;;;;;;;21.02;3.95;;;7.60;99.90;;;;;;5071092;28;20048;-62
2020/12/16 02:49:29;;;;;;;23.33;3.60;;;7.70;99.90;;;;;;5078629;28;20544;-61
2020/12/16 02:51:55;;;;;;;19.90;3.42;;;7.60;99.90;;;;;;5070968;28;20035;-63
2020/12/16 02:54:22;;;;;;;19.85;3.38;;;7.60;99.90;;;;;;5077677;28;20063;-60
2020/12/16 02:56:53;;;;;;;22.85;3.55;;;7.60;99.90;;;;;;5077506;28;20494;-61
2020/12/16 02:59:26;;;;;;;21.95;3.28;;;7.60;99.90;;;;;;5069151;28;20604;-61
2020/12/16 03:01:53;;;;;;;26.90;4.35;;;7.60;99.90;;;;;;5067382;28;20036;-61
2020/12/16 03:04:20;;;;;;;14.48;2.58;;;7.60;99.90;;;;;;5085990;28;20020;-61
2020/12/16 03:06:51;;;;;;;15.27;3.00;;;7.60;99.90;;;;;;5077544;28;20470;-63
2020/12/16 03:09:19;;;;;;;23.25;3.97;;;7.60;99.90;;;;;;5068367;28;20107;-62
2020/12/16 03:11:45;;;;;;;20.50;3.63;;;7.60;99.90;;;;;;5057756;28;20070;-62
2020/12/16 03:14:11;;;;;;;14.82;2.60;;;7.60;99.90;;;;;;5060276;28;20040;-61
2020/12/16 03:16:37;;;;;;;18.75;3.78;;;7.60;99.90;;;;;;5070070;28;20032;-63
2020/12/16 03:19:03;;;;;;;29.65;4.43;;;7.60;99.90;;;;;;5080527;28;20031;-62
2020/12/16 03:21:29;;;;;;;19.15;3.40;;;7.60;99.90;;;;;;5075720;28;20033;-61
2020/12/16 03:23:55;;;;;;;17.73;3.15;;;7.60;99.90;;;;;;5074738;28;20374;-62
2020/12/16 03:26:22;;;;;;;18.27;3.40;;;7.60;99.90;;;;;;5075295;28;20501;-62
2020/12/16 03:28:47;;;;;;;19.75;3.85;;;7.60;99.90;;;;;;5065481;28;20033;-61
2020/12/16 03:31:14;;;;;;;21.95;3.40;;;7.70;99.90;;;;;;5087124;28;20032;-61
2020/12/16 03:33:41;;;;;;;18.67;3.28;;;7.70;99.90;;;;;;5082357;28;20102;-62
2020/12/16 03:36:09;;;;;;;24.83;3.65;;;7.70;99.90;;;;;;5093948;28;20032;-60
2020/12/16 03:38:34;;;;;;;17.73;3.13;;;7.70;99.90;;;;;;5075140;28;20111;-61
2020/12/16 03:41:00;;;;;;;17.90;2.92;;;7.70;99.90;;;;;;5061099;28;20539;-60
2020/12/16 03:43:26;;;;;;;18.85;2.83;;;7.70;99.90;;;;;;5057246;28;20119;-61
2020/12/16 03:45:52;;;;;;;21.90;3.55;;;7.70;99.90;;;;;;5064212;28;20036;-62
2020/12/16 03:48:19;;;;;;;14.48;2.78;;;7.70;99.90;;;;;;5077327;28;20109;-61
2020/12/16 03:50:45;;;;;;;17.30;2.63;;;7.70;99.90;;;;;;5068317;28;20037;-61
2020/12/16 03:53:10;;;;;;;14.63;2.92;;;7.70;99.90;;;;;;5082999;28;20024;-62
2020/12/16 03:55:36;;;;;;;19.38;3.03;;;7.80;99.90;;;;;;5074879;28;20033;-62
2020/12/16 03:58:02;;;;;;;17.80;3.45;;;7.80;99.90;;;;;;5064265;28;20025;-61
2020/12/16 04:00:27;;;;;;;20.20;2.85;;;7.80;99.90;;;;;;5066666;28;20041;-60
2020/12/16 04:02:53;;;;;;;21.48;3.00;;;7.90;99.90;;;;;;5077713;28;20024;-62
2020/12/16 04:05:19;;;;;;;19.83;3.28;;;7.80;99.90;;;;;;5075602;28;20041;-61
2020/12/16 04:07:44;;;;;;;18.75;3.30;;;7.90;99.90;;;;;;5073843;28;20033;-62
2020/12/16 04:10:11;;;;;;;20.23;2.97;;;7.90;99.90;;;;;;5069523;28;20021;-61
2020/12/16 04:12:37;;;;;;;20.48;3.35;;;7.90;99.90;;;;;;5065483;28;20033;-62
2020/12/16 04:15:04;;;;;;;22.30;3.35;;;7.90;99.90;;;;;;5074640;28;20032;-61
2020/12/16 04:17:32;;;;;;;23.30;2.90;;;7.90;99.90;;;;;;5072555;28;20032;-61
2020/12/16 04:19:59;;;;;;;18.25;3.05;;;8.00;99.90;;;;;;5071094;28;20372;-60
2020/12/16 04:22:25;;;;;;;17.70;3.30;;;8.00;99.90;;;;;;5068652;28;20437;-62
2020/12/16 04:24:50;;;;;;;16.58;3.17;;;8.00;99.90;;;;;;5057461;28;20166;-61
2020/12/16 04:27:16;;;;;;;18.10;3.53;;;8.00;99.90;;;;;;5058866;28;20043;-61
2020/12/16 04:29:42;;;;;;;23.50;3.40;;;8.10;99.90;;;;;;5065680;28;20477;-61
2020/12/16 04:32:10;;;;;;;19.00;3.15;;;8.00;99.90;;;;;;5073072;28;20044;-61
2020/12/16 04:34:36;;;;;;;19.90;3.53;;;8.00;99.90;;;;;;5076322;28;20020;-61
2020/12/16 04:37:02;;;;;;;17.30;3.15;;;8.00;99.90;;;;;;5081160;28;20484;-61
2020/12/16 04:39:29;;;;;;;21.40;3.88;;;8.00;99.90;;;;;;5070883;28;20661;-60
2020/12/16 04:41:56;;;;;;;18.17;3.03;;;8.00;99.90;;;;;;5078218;28;20060;-64
2020/12/16 04:44:21;;;;;;;24.13;3.72;;;8.00;99.90;;;;;;5084055;28;20032;-61
2020/12/16 04:46:48;;;;;;;26.33;3.58;;;8.00;99.90;;;;;;5089598;28;20031;-61
2020/12/16 04:49:14;;;;;;;15.13;3.17;;;8.00;99.90;;;;;;5073098;28;20025;-61
2020/12/16 04:51:42;;;;;;;18.10;2.90;;;8.00;99.90;;;;;;5072697;28;20037;-62
2020/12/16 04:54:08;;;;;;;20.50;3.85;;;8.00;99.90;;;;;;5066644;28;20039;-61
2020/12/16 04:56:36;;;;;;;20.02;3.72;;;8.00;99.90;;;;;;5076431;28;20032;-64
2020/12/16 04:59:04;;;;;;;16.40;3.05;;;8.10;99.90;;;;;;5064856;28;20075;-62
2020/12/16 05:01:30;;;;;;;20.38;3.38;;;8.10;99.90;;;;;;5073368;28;20020;-61
2020/12/16 05:03:56;;;;;;;22.30;3.47;;;8.10;99.90;;;;;;5076180;28;20107;-62
2020/12/16 05:06:44;;;;;;;18.92;3.20;;;8.10;99.90;;;;;;5072126;28;20163;-61
2020/12/16 05:09:10;;;;;;;21.83;3.47;;;8.10;99.90;;;;;;5078673;28;20035;-60
2020/12/16 05:11:41;;;;;;;21.83;3.53;;;8.10;99.90;;;;;;5059138;28;20052;-62
2020/12/16 05:14:10;;;;;;;23.55;3.85;;;8.10;99.90;;;;;;5072740;28;20714;-61
2020/12/16 05:16:55;;;;;;;16.95;3.47;;;8.10;99.90;;;;;;5072872;28;20028;-61
2020/12/16 05:19:35;;;;;;;20.50;3.05;;;8.10;99.90;;;;;;5092761;28;20104;-61
2020/12/16 05:22:10;;;;;;;11.95;2.60;;;8.10;99.90;;;;;;5078285;28;20077;-59
2020/12/16 05:24:37;;;;;;;14.00;3.15;;;8.00;99.90;;;;;;5072281;28;20094;-60
2020/12/16 05:27:03;;;;;;;21.58;3.75;;;8.10;99.90;;;;;;5068321;28;20034;-62
2020/12/16 05:29:29;;;;;;;15.95;2.90;;;8.10;99.90;;;;;;5090842;28;20035;-65
2020/12/16 05:31:55;;;;;;;20.48;2.90;;;8.10;99.90;;;;;;5087045;28;20032;-63
2020/12/16 05:34:30;;;;;;;22.75;4.03;;;8.10;99.90;;;;;;5067450;28;20054;-63
2020/12/16 05:36:55;;;;;;;19.48;3.30;;;8.20;99.90;;;;;;5072726;28;20032;-59
2020/12/16 05:39:21;;;;;;;17.15;3.13;;;8.20;99.90;;;;;;5071310;28;20090;-60
2020/12/16 05:41:56;;;;;;;20.35;3.38;;;8.20;99.90;;;;;;5076420;28;20721;-60
2020/12/16 05:44:24;;;;;;;18.25;3.47;;;8.20;99.90;;;;;;5051882;28;20032;-64
2020/12/16 05:46:51;;;;;;;21.85;3.38;;;8.20;99.90;;;;;;5083434;28;20115;-59
2020/12/16 05:49:30;;;;;;;21.02;3.08;;;8.30;99.90;;;;;;5069772;28;20035;-63
2020/12/16 05:52:01;;;;;;;15.15;3.13;;;8.20;99.90;;;;;;5088625;28;20028;-61
2020/12/16 05:54:27;;;;;;;17.85;2.80;;;8.30;99.90;;;;;;5052978;28;20033;-61
2020/12/16 05:57:20;;;;;;;23.05;3.33;;;8.30;99.90;;;;;;5083006;28;20028;-60
2020/12/16 06:00:12;;;;;;;12.45;2.70;;;8.20;99.90;;;;;;5055272;28;20127;-60
2020/12/16 06:02:40;;;;;;;20.63;2.88;;;8.20;99.90;;;;;;5052344;28;20059;-60
2020/12/16 06:05:11;;;;;;;20.55;3.25;;;8.20;99.90;;;;;;5058549;28;20037;-60
2020/12/16 06:07:42;;;;;;;17.65;3.33;;;8.20;99.90;;;;;;5060799;28;20028;-63
2020/12/16 06:10:08;;;;;;;21.70;3.13;;;8.20;99.90;;;;;;5060927;28;20059;-60
2020/12/16 06:12:39;;;;;;;18.65;3.55;;;8.30;99.90;;;;;;5071477;28;20055;-61
2020/12/16 06:15:09;;;;;;;18.25;3.03;;;8.30;99.90;;;;;;5069286;28;20020;-62
2020/12/16 06:17:46;;;;;;;28.25;4.18;;;8.30;99.90;;;;;;5081339;28;20025;-60
2020/12/16 06:20:14;;;;;;;20.63;3.20;;;8.30;99.90;;;;;;5071594;28;20040;-60
2020/12/16 06:22:44;;;;;;;24.15;3.45;;;8.30;99.90;;;;;;5068127;28;20021;-61
2020/12/16 06:25:13;;;;;;;19.13;4.03;;;8.30;99.90;;;;;;5062422;28;20355;-60
2020/12/16 06:27:42;;;;;;;24.92;3.90;;;8.30;99.90;;;;;;5066387;28;20031;-60
2020/12/16 06:30:13;;;;;;;16.95;2.95;;;8.30;99.90;;;;;;5067531;28;20032;-63
2020/12/16 06:32:44;;;;;;;24.63;3.75;;;8.30;99.90;;;;;;5056031;28;20032;-63
2020/12/16 06:35:16;;;;;;;16.02;4.03;;;8.40;99.90;;;;;;5059766;28;20048;-60
2020/12/16 06:37:42;;;;;;;14.57;3.13;;;8.40;99.90;;;;;;5064896;28;20090;-63
2020/12/16 06:40:07;;;;;;;16.63;3.40;;;8.30;99.90;;;;;;5075375;28;20048;-60
2020/12/16 06:42:33;;;;;;;19.30;3.35;;;8.30;99.90;;;;;;5069841;28;20395;-58
2020/12/16 06:45:15;;;;;;;18.15;3.45;;;8.30;99.90;;;;;;5066263;28;20045;-60
2020/12/16 06:47:45;;;;;;;16.30;3.30;;;8.30;99.90;;;;;;5069130;28;20108;-60
2020/12/16 06:50:21;;;;;;;20.67;3.65;;;8.30;99.90;;;;;;5060387;28;20470;-61
2020/12/16 06:52:51;;;;;;;21.95;4.28;;;8.30;99.90;;;;;;5061757;28;20038;-61
2020/12/16 06:55:16;;;;;;;23.63;4.85;;;8.40;99.90;;;;;;5069881;28;20418;-60
2020/12/16 06:58:00;;;;;;;11.73;3.42;;;8.40;99.90;;;;;;5068944;28;20043;-60
2020/12/16 07:00:26;;;;;;;19.55;3.53;;;8.50;99.90;;;;;;5066657;28;20053;-59
2020/12/16 07:02:52;;;;;;;17.25;3.30;;;8.50;99.90;;;;;;5073481;28;20429;-61
2020/12/16 07:05:35;;;;;;;23.70;3.55;;;8.50;99.90;;;;;;5060162;28;20039;-60
2020/12/16 07:08:01;;;;;;;18.63;4.13;;;8.50;99.90;;;;;;5079926;28;20027;-61
2020/12/16 07:10:48;;;;;;;24.83;3.88;;;8.50;99.90;;;;;;5058012;28;20032;-61
2020/12/16 07:13:16;;;;;;;17.33;3.80;;;8.50;99.90;;;;;;5067218;28;20103;-59
2020/12/16 07:15:49;;;;;;;18.15;3.58;;;8.60;99.90;;;;;;5056243;28;20533;-62
2020/12/16 07:18:28;;;;;;;23.70;3.63;;;8.60;99.90;;;;;;5065712;28;20107;-63
2020/12/16 07:21:15;;;;;;;27.92;3.83;;;8.60;99.90;;;;;;5057768;28;20032;-62
2020/12/16 07:24:01;;;;;;;18.75;3.72;;;8.60;99.90;;;;;;5072462;28;20120;-63
2020/12/16 07:26:29;;;;;;;22.63;3.95;;;8.50;99.90;;;;;;5058516;28;20044;-64
2020/12/16 07:28:56;;;;;;;19.08;3.45;;;8.50;99.90;;;;;;5069755;28;20087;-62
2020/12/16 07:31:22;;;;;;;13.88;3.67;;;8.50;99.90;;;;;;5056287;28;20017;-59
2020/12/16 07:33:48;;;;;;;21.42;3.85;;;8.50;99.90;;;;;;5078528;28;20036;-61
2020/12/16 07:36:16;;;;;;;20.27;3.50;;;8.40;99.90;;;;;;5073890;28;20435;-61
2020/12/16 07:38:53;;;;;;;24.50;3.75;;;8.40;99.90;;;;;;5063405;28;20087;-60
2020/12/16 07:41:26;;;;;;;20.58;4.47;;;8.50;99.90;;;;;;5070488;28;20108;-62
2020/12/16 07:43:52;;;;;;;14.02;3.65;;;8.50;99.90;;;;;;5065635;28;20036;-62
2020/12/16 07:46:21;;;;;;;16.60;3.85;;;8.40;99.90;;;;;;5073231;28;20040;-62
2020/12/16 07:48:46;;;;;;;14.48;3.47;;;8.40;99.90;;;;;;5064029;28;20029;-61
2020/12/16 07:51:13;;;;;;;16.55;4.15;;;8.40;99.90;;;;;;5069648;28;20375;-61
2020/12/16 07:53:48;;;;;;;24.48;4.25;;;8.40;99.90;;;;;;5057749;28;20025;-61
2020/12/16 07:56:15;;;;;;;16.80;4.10;;;8.40;99.90;;;;;;5072673;28;20033;-62
2020/12/16 07:58:41;;;;;;;17.83;4.00;;;8.40;99.90;;;;;;5059174;28;20028;-61
2020/12/16 08:01:13;;;;;;;18.77;4.10;;;8.40;99.90;;;;;;5076121;28;20108;-60
2020/12/16 08:03:40;;;;;;;22.13;4.25;;;8.40;99.90;;;;;;5063695;28;20043;-60
2020/12/16 08:06:06;;;;;;;20.30;4.40;;;8.40;99.90;;;;;;5064378;28;20123;-60
2020/12/16 08:08:41;;;;;;;20.42;4.38;;;8.40;99.90;;;;;;5065380;28;20032;-61
2020/12/16 08:11:12;;;;;;;16.75;3.38;;;8.30;99.90;;;;;;5073968;28;20052;-62
2020/12/16 08:13:37;;;;;;;18.10;4.25;;;8.30;99.90;;;;;;5066821;28;20035;-63
2020/12/16 08:16:06;;;;;;;17.33;3.50;;;8.40;99.90;;;;;;5072117;28;20099;-59
2020/12/16 08:18:33;;;;;;;18.30;3.90;;;8.40;99.90;;;;;;5069269;28;20034;-61
2020/12/16 08:20:59;;;;;;;14.93;3.50;;;8.40;99.90;;;;;;5053460;28;20045;-62
2020/12/16 08:23:25;;;;;;;21.40;3.80;;;8.40;99.90;;;;;;5073318;28;20031;-60
2020/12/16 08:25:51;;;;;;;23.02;4.60;;;8.40;99.90;;;;;;5073266;28;20116;-62
2020/12/16 08:28:27;;;;;;;22.48;4.43;;;8.40;99.90;;;;;;5069901;28;20103;-60
2020/12/16 08:30:53;;;;;;;17.67;4.00;;;8.40;99.90;;;;;;5064979;28;20025;-60
2020/12/16 08:33:19;;;;;;;16.55;3.55;;;8.40;99.90;;;;;;5070445;28;20489;-60
2020/12/16 08:35:50;;;;;;;20.73;4.07;;;8.50;99.90;;;;;;5079038;28;20032;-61
2020/12/16 08:38:25;;;;;;;22.27;3.30;;;8.50;99.90;;;;;;5075395;28;20032;-61
2020/12/16 08:40:51;;;;;;;18.48;3.97;;;8.50;99.90;;;;;;5065308;28;20025;-61
2020/12/16 08:43:32;;;;;;;22.98;4.28;;;8.50;99.90;;;;;;5065909;28;20025;-61
2020/12/16 08:46:05;;;;;;;27.90;4.93;;;8.50;99.90;;;;;;5076903;28;20503;-60
2020/12/16 08:48:48;;;;;;;16.38;3.13;;;8.60;99.90;;;;;;5060635;28;20115;-61
2020/12/16 08:51:30;;;;;;;14.70;3.40;;;8.70;99.90;;;;;;5065357;28;20123;-60
2020/12/16 08:54:01;;;;;;;23.35;4.28;;;8.80;99.90;;;;;;5061310;28;20032;-60
2020/12/16 08:56:27;;;;;;;18.88;3.92;;;8.80;99.90;;;;;;5070065;28;20028;-62
2020/12/16 08:59:21;;;;;;;24.58;6.03;;;8.80;99.90;;;;;;5064274;28;20081;-62
2020/12/16 09:01:49;;;;;;;17.80;4.03;;;8.90;99.90;;;;;;5069255;28;20032;-61
2020/12/16 09:04:26;;;;;;;25.88;6.00;;;8.90;99.90;;;;;;5059903;28;20028;-59
2020/12/16 09:07:01;;;;;;;22.02;4.30;;;8.90;99.90;;;;;;5067958;28;20032;-65
2020/12/16 09:09:27;;;;;;;18.33;3.35;;;8.90;99.90;;;;;;5056946;28;20082;-60
2020/12/16 09:11:52;;;;;;;21.13;3.92;;;8.90;99.90;;;;;;5065735;28;20065;-62
2020/12/16 09:14:19;;;;;;;20.17;3.22;;;9.00;99.90;;;;;;5070225;28;20032;-60
2020/12/16 09:16:45;;;;;;;14.52;3.53;;;9.00;99.90;;;;;;5063757;28;20037;-61
2020/12/16 09:19:18;;;;;;;28.02;4.80;;;9.00;99.90;;;;;;5069820;28;20031;-62
2020/12/16 09:21:45;;;;;;;16.10;3.92;;;9.00;99.90;;;;;;5064699;28;20029;-61
2020/12/16 09:24:11;;;;;;;17.40;3.63;;;9.00;99.90;;;;;;5074693;28;20028;-61
2020/12/16 09:26:45;;;;;;;20.33;4.00;;;8.90;99.90;;;;;;5066214;28;20108;-62
2020/12/16 09:29:28;;;;;;;18.23;4.05;;;9.00;99.90;;;;;;5076392;28;20060;-61
2020/12/16 09:32:15;;;;;;;16.17;3.47;;;9.00;99.90;;;;;;5070437;28;20119;-61
2020/12/16 09:34:49;;;;;;;20.55;4.10;;;8.90;99.90;;;;;;5080721;28;20047;-61
2020/12/16 09:37:41;;;;;;;20.13;3.55;;;9.00;99.90;;;;;;5060307;28;20066;-60
2020/12/16 09:40:09;;;;;;;17.75;3.60;;;8.90;99.90;;;;;;5062074;28;20044;-62
2020/12/16 09:42:35;;;;;;;19.15;3.53;;;8.90;99.90;;;;;;5080318;28;20020;-61
2020/12/16 09:45:20;;;;;;;16.80;3.15;;;8.90;99.90;;;;;;5071615;28;20036;-61
2020/12/16 09:47:48;;;;;;;15.10;3.50;;;9.00;99.90;;;;;;5063431;28;20036;-61
2020/12/16 09:50:14;;;;;;;22.08;3.63;;;9.00;99.90;;;;;;5060117;28;20483;-61
2020/12/16 09:52:41;;;;;;;19.15;3.40;;;9.00;99.90;;;;;;5063083;28;20525;-61
2020/12/16 09:55:20;;;;;;;16.27;4.00;;;9.00;99.90;;;;;;5065217;28;20035;-61
2020/12/16 09:58:02;;;;;;;18.98;3.63;;;9.00;99.90;;;;;;5082720;28;20040;-61
2020/12/16 10:00:28;;;;;;;17.65;3.10;;;9.00;99.90;;;;;;5072866;28;20027;-59
2020/12/16 10:02:56;;;;;;;18.00;3.70;;;9.00;99.90;;;;;;5056371;28;20032;-61
2020/12/16 10:05:22;;;;;;;21.00;3.10;;;9.10;99.90;;;;;;5060960;28;20482;-61
2020/12/16 10:07:47;;;;;;;22.27;4.03;;;9.10;99.90;;;;;;5074031;28;20111;-60
2020/12/16 10:10:13;;;;;;;21.65;3.60;;;9.10;99.90;;;;;;5063283;28;20028;-60
2020/12/16 10:12:39;;;;;;;14.27;3.47;;;9.20;99.90;;;;;;5069979;28;20426;-60
2020/12/16 10:15:05;;;;;;;19.15;3.65;;;9.20;99.90;;;;;;5067332;28;20390;-60
2020/12/16 10:17:30;;;;;;;25.02;6.07;;;9.20;99.90;;;;;;5074291;28;20033;-61
2020/12/16 10:19:56;;;;;;;16.35;3.67;;;9.30;99.90;;;;;;5071039;28;20036;-61
2020/12/16 10:22:22;;;;;;;17.70;4.07;;;9.30;99.90;;;;;;5060576;28;20056;-61
2020/12/16 10:24:47;;;;;;;22.38;4.45;;;9.40;99.90;;;;;;5051135;28;20069;-61
2020/12/16 10:27:13;;;;;;;13.18;3.40;;;9.40;99.90;;;;;;5051420;28;20376;-61
2020/12/16 10:29:39;;;;;;;18.17;3.55;;;9.40;99.90;;;;;;5051366;28;20029;-60
2020/12/16 10:32:06;;;;;;;15.00;2.97;;;9.50;99.90;;;;;;5051292;28;20086;-61
2020/12/16 10:34:32;;;;;;;21.38;3.90;;;9.50;99.90;;;;;;5054155;28;20032;-61
2020/12/16 10:36:57;;;;;;;21.08;3.40;;;9.50;99.90;;;;;;5051240;28;20025;-61
2020/12/16 10:39:23;;;;;;;14.73;3.40;;;9.60;99.90;;;;;;5063044;28;20036;-60
2020/12/16 10:41:54;;;;;;;20.33;4.55;;;9.60;99.90;;;;;;5070641;28;20373;-61
2020/12/16 10:44:22;;;;;;;13.18;3.20;;;9.50;99.90;;;;;;5071730;28;20458;-61
2020/12/16 10:46:49;;;;;;;14.85;3.50;;;9.60;99.90;;;;;;5070820;28;20040;-61
2020/12/16 10:49:16;;;;;;;24.05;3.30;;;9.70;99.90;;;;;;5071382;28;20079;-61
2020/12/16 10:51:43;;;;;;;13.40;3.13;;;9.70;99.90;;;;;;5070899;28;20032;-61
2020/12/16 10:54:09;;;;;;;22.67;4.15;;;9.70;99.90;;;;;;5071292;28;20039;-60
2020/12/16 10:56:34;;;;;;;17.25;4.32;;;9.70;99.90;;;;;;5069516;28;20052;-60
2020/12/16 10:59:00;;;;;;;20.85;3.47;;;9.80;99.90;;;;;;5071548;28;20471;-62
2020/12/16 11:01:26;;;;;;;17.40;3.33;;;9.80;99.90;;;;;;5070926;28;20390;-61
2020/12/16 11:03:51;;;;;;;10.57;2.80;;;9.80;99.90;;;;;;5071318;28;20020;-61
2020/12/16 11:06:17;;;;;;;14.98;3.53;;;9.80;99.90;;;;;;5070689;28;20035;-60
2020/12/16 11:08:43;;;;;;;12.80;2.97;;;9.90;99.90;;;;;;5071647;28;20040;-62
2020/12/16 11:11:09;;;;;;;16.63;3.40;;;9.90;99.90;;;;;;5070254;28;20052;-61
2020/12/16 11:13:35;;;;;;;13.23;3.45;;;9.90;99.90;;;;;;5070285;28;20029;-60
2020/12/16 11:16:01;;;;;;;15.93;3.45;;;9.90;99.90;;;;;;5070491;28;20029;-62
2020/12/16 11:18:27;;;;;;;14.50;3.50;;;9.90;99.90;;;;;;5071251;28;20031;-60
2020/12/16 11:20:52;;;;;;;11.20;2.60;;;9.90;99.90;;;;;;5070663;28;20027;-60
2020/12/16 11:23:18;;;;;;;16.60;3.08;;;9.90;99.90;;;;;;5071392;28;20064;-60
2020/12/16 11:25:44;;;;;;;13.13;2.88;;;10.00;99.90;;;;;;5070345;28;20039;-63
2020/12/16 11:28:10;;;;;;;12.40;2.67;;;10.00;99.90;;;;;;5070886;28;20035;-61
2020/12/16 11:30:35;;;;;;;14.38;3.05;;;10.10;99.90;;;;;;5069287;28;20044;-63
2020/12/16 11:33:01;;;;;;;12.82;2.25;;;10.10;99.90;;;;;;5071209;28;20034;-61
2020/12/16 11:35:27;;;;;;;14.35;2.83;;;10.20;99.90;;;;;;5074107;28;20033;-63
2020/12/16 11:37:52;;;;;;;14.98;3.28;;;10.20;99.90;;;;;;5074882;28;20040;-61
2020/12/16 11:40:18;;;;;;;13.68;3.15;;;10.20;99.90;;;;;;5074086;28;20060;-59
2020/12/16 11:42:44;;;;;;;14.25;2.80;;;10.20;99.90;;;;;;5053519;28;20021;-61
2020/12/16 11:45:11;;;;;;;15.77;2.72;;;10.20;99.90;;;;;;5054506;28;20071;-62
2020/12/16 11:47:37;;;;;;;16.80;3.08;;;10.20;99.90;;;;;;5055634;28;20087;-61
2020/12/16 11:50:08;;;;;;;12.23;2.70;;;10.20;99.90;;;;;;5055284;28;20025;-62
2020/12/16 11:52:34;;;;;;;14.43;3.25;;;10.30;99.90;;;;;;5053912;28;20437;-62
2020/12/16 11:55:00;;;;;;;8.82;2.60;;;10.30;99.90;;;;;;5054681;28;20111;-61
2020/12/16 11:57:26;;;;;;;9.73;2.70;;;10.30;99.90;;;;;;5053497;28;20021;-61
2020/12/16 11:59:51;;;;;;;14.00;3.20;;;10.30;99.90;;;;;;5054283;28;20494;-62
2020/12/16 12:02:17;;;;;;;16.55;2.65;;;10.30;99.90;;;;;;5066407;28;20378;-59
2020/12/16 12:04:43;;;;;;;12.88;2.58;;;10.30;99.90;;;;;;5063908;28;20040;-61
2020/12/16 12:07:09;;;;;;;13.50;2.65;;;10.30;99.90;;;;;;5066299;28;20036;-61
2020/12/16 12:09:35;;;;;;;15.25;2.72;;;10.40;99.90;;;;;;5074315;28;20107;-61
2020/12/16 12:12:01;;;;;;;13.70;3.22;;;10.40;99.90;;;;;;5073287;28;20048;-63
2020/12/16 12:14:28;;;;;;;14.18;3.03;;;10.50;99.90;;;;;;5074401;28;20111;-61
2020/12/16 12:16:54;;;;;;;11.88;2.42;;;10.40;99.90;;;;;;5073303;28;20031;-62
2020/12/16 12:19:20;;;;;;;15.57;4.72;;;10.40;99.90;;;;;;5074032;28;20048;-60
2020/12/16 12:21:47;;;;;;;14.73;3.05;;;10.50;99.90;;;;;;5072356;28;20397;-61
2020/12/16 12:24:13;;;;;;;12.80;2.80;;;10.60;99.90;;;;;;5073970;28;20107;-62
2020/12/16 12:26:38;;;;;;;11.77;2.47;;;10.50;99.90;;;;;;5073345;28;20123;-61
2020/12/16 12:29:04;;;;;;;19.30;3.47;;;10.50;99.90;;;;;;5072816;28;20048;-62
2020/12/16 12:31:30;;;;;;;10.77;2.80;;;10.60;99.90;;;;;;5073496;28;20035;-60
2020/12/16 12:33:57;;;;;;;12.25;2.90;;;10.60;99.90;;;;;;5074055;28;20028;-60
2020/12/16 12:36:22;;;;;;;20.92;4.18;;;10.60;99.90;;;;;;5073172;28;20029;-61
2020/12/16 12:38:48;;;;;;;13.30;2.83;;;10.50;99.90;;;;;;5073075;28;20032;-61
2020/12/16 12:41:17;;;;;;;15.57;3.05;;;10.50;99.90;;;;;;5072846;28;20385;-61
2020/12/16 12:43:43;;;;;;;15.52;3.10;;;10.50;99.90;;;;;;5064908;28;20040;-62
2020/12/16 12:46:09;;;;;;;12.10;3.00;;;10.50;99.90;;;;;;5052893;28;20028;-60
2020/12/16 12:48:36;;;;;;;13.55;2.58;;;10.50;99.90;;;;;;5053569;28;20545;-60
2020/12/16 12:51:01;;;;;;;14.38;2.90;;;10.50;99.90;;;;;;5052780;28;20398;-61
2020/12/16 12:53:27;;;;;;;15.25;2.67;;;10.50;99.90;;;;;;5056956;28;20028;-61